Suvarnabhumi Airport
VTBS : now visible

Airfield :











YOU CAN JOIN US ON...

 
LOGIN :

Register | Disclaimer

   EN    FR    IT 

 









Legend :    VFR   Marginal VFR   IFR   Intensive IFR   Very Intensive IFR
Visi :
Ceiling :
>= 8 km
>= 3000ft
5 to 8 km
1000 to 3000 ft
1500m to 5 km
500 to 1000 ft
800 to 1500m
200 to 500 ft
< 800m
< 200 ft
Symbols :   Thunderstorms  Fog  Heavy snow  Heavy precipitations  Wind > 20 kt






- Airport Elevation : 5 ft
- IATA code : BKK


VTBS - Suvarnabhumi

CURRENT METAR :
  • 281200Z 21006KT CAVOK 27/20 Q1010 NOSIG

EXPIRED METARs :
  • 281130Z 20006KT 9999 FEW030 28/20 Q1009 NOSIG
  • 281100Z 18007KT 150V210 9999 FEW030 30/20 Q1009 NOSIG
  • 281030Z 17009KT 9999 FEW030 30/20 Q1009 NOSIG
  • 281000Z 20009KT 9999 FEW020 31/19 Q1009 NOSIG
  • 280930Z 20010KT 9999 FEW020 31/19 Q1008 NOSIG

TAF TAF VTBS
Valid from the 28 at 12:00 until the 29 at 18:00 UTC


281100Z 2812/2918 18008KT 9999 FEW020
BECMG 2820/2822 34005KT 6000
BECMG 2901/2903 10005KT 9999
BECMG 2906/2908 18008KT



MET'MAP, your aeronautical weather chart ! - Copyright ORBIFLY December 2007 - Disclaimer

ORBIFLY MET'MAP TEAM :

Programming & Development : Alexandra Zaïnal
Concept & original design : Baudouin d'Aumeries
Assistance for programming : Marc-Olivier Méhu
Technical & hardware support : Manuel Goepfert

Contact : metmap@orbifly.com




SOURCES & CREDITS :

   NOAA       Earth
Advisory